Severn — WDE5806 — position and weather

sailwx.info

Track history (hours):
 
Tides and Currents Weather Stations Pressure Air Temp Water Temp Dewpoint Dewpoint Depression Visibility Wind Speed Wind Dir Waves Ship Positions

Severn

Owner: Vane Line Bunkering, Inc., Philadelphia, PA. More information available from US FCC via Universal Licensing System and Coast Guard Vessel Documentation Center.

Last reported at 2017-Sep-19 13:52 UTC. Time now 2017-Sep-19 20:35 UTC.
Position N 40°56' W 073°55'.

Length 33 m; draft 5 m.

Type: Towing. MMSI: 367371840.

Date/timePositionNaut miles runAvg speedWind from/ knotsBaromVisibWave heightAir tempDewpointWater temp
2017-Sep-19 13:52N 40°56' W 073°55'0 0.0
2017-Sep-19 11:58N 40°56' W 073°55'0 0.0
2017-Sep-19 03:06N 40°56' W 073°55'0 0.0
2017-Sep-19 00:47N 40°56' W 073°55'4 1.1
2017-Sep-18 21:21N 40°53' W 073°56'3 7.8
2017-Sep-18 21:00N 40°50' W 073°58'4 7.4
2017-Sep-18 20:30N 40°47' W 073°60'3 6.8
2017-Sep-18 20:00N 40°44' W 074°01'3 6.7
2017-Sep-18 19:30N 40°40' W 074°02'1 2.3
2017-Sep-18 19:00N 40°39' W 074°02'0 0.0
2017-Sep-18 18:30N 40°39' W 074°02'0 0.0
2017-Sep-18 18:00N 40°39' W 074°03'0 0.1
2017-Sep-18 17:30N 40°39' W 074°02'0 0.0
2017-Sep-18 17:00N 40°39' W 074°02'0 0.0
2017-Sep-18 16:30N 40°39' W 074°02'0 0.1
2017-Sep-18 16:00N 40°39' W 074°03'4 7.1
2017-Sep-18 15:30N 40°39' W 074°07'2 4.2
2017-Sep-18 15:00N 40°39' W 074°10'3 5.9
2017-Sep-18 14:30N 40°36' W 074°12'0 0.3
2017-Sep-18 12:58N 40°36' W 074°12'0 0.3
2017-Sep-18 12:20N 40°36' W 074°12'1 0.2
2017-Sep-18 08:35N 40°36' W 074°12'1 7.3
2017-Sep-18 08:30N 40°37' W 074°12'3 6.8
2017-Sep-18 08:00N 40°39' W 074°08'611.0
2017-Sep-18 07:30N 40°41' W 074°02'1 2.6
2017-Sep-18 07:00N 40°41' W 074°00'3 6.3
2017-Sep-18 06:30N 40°39' W 074°03'2 3.1
2017-Sep-18 06:00N 40°39' W 074°05'0 0.1
2017-Sep-18 05:30N 40°39' W 074°05'0 0.9
2017-Sep-18 05:00N 40°39' W 074°05'3 6.8
2017-Sep-18 04:30N 40°40' W 074°01'0 0.3
2017-Sep-18 04:00N 40°40' W 074°00'0 0.1
2017-Sep-18 03:31N 40°40' W 074°00'0 0.5
2017-Sep-18 03:00N 40°40' W 074°00'0 0.0
2017-Sep-18 02:30N 40°40' W 074°00'0 0.0
2017-Sep-18 02:00N 40°40' W 074°00'0 0.0
2017-Sep-18 01:30N 40°40' W 074°00'2 3.4
2017-Sep-18 01:00N 40°39' W 074°02'3 5.9
2017-Sep-18 00:30N 40°39' W 074°06'0 0.0
2017-Sep-18 00:00N 40°39' W 074°06'0 0.0
2017-Sep-17 23:30N 40°39' W 074°06'0 0.0
2017-Sep-17 23:00N 40°39' W 074°06'0 0.0
2017-Sep-17 22:30N 40°39' W 074°06'0 0.0
2017-Sep-17 22:00N 40°39' W 074°06'0 0.0
2017-Sep-17 21:30N 40°39' W 074°06'0 0.0
2017-Sep-17 21:00N 40°39' W 074°06'0 0.0
2017-Sep-17 20:30N 40°39' W 074°06'0 0.0
2017-Sep-17 20:00N 40°39' W 074°06'0 0.0
2017-Sep-17 19:30N 40°39' W 074°06'0 0.0
2017-Sep-17 19:00N 40°39' W 074°06'0 0.0
2017-Sep-17 18:30N 40°39' W 074°06'0 0.0
2017-Sep-17 18:00N 40°39' W 074°06'0 0.5
2017-Sep-17 17:30N 40°39' W 074°06'0 0.3
2017-Sep-17 17:00N 40°39' W 074°05'1 2.5
2017-Sep-17 16:30N 40°39' W 074°07'0 0.0
2017-Sep-17 16:00N 40°39' W 074°07'2 4.2
2017-Sep-17 15:30N 40°39' W 074°10'3 5.7
2017-Sep-17 14:57N 40°36' W 074°12'0 0.0
2017-Sep-17 14:30N 40°36' W 074°12'2 4.2
2017-Sep-17 13:59N 40°34' W 074°13'2 1.7
2017-Sep-17 12:50N 40°33' W 074°15'0 0.0
2017-Sep-17 12:19N 40°33' W 074°15'0 0.0
2017-Sep-17 12:00N 40°33' W 074°15'0 0.0
2017-Sep-17 11:30N 40°33' W 074°15'0 0.0
2017-Sep-17 06:07N 40°33' W 074°15'0 2.4
2017-Sep-17 06:00N 40°33' W 074°15'4 8.2
2017-Sep-17 05:30N 40°37' W 074°12'4 7.2
2017-Sep-17 05:00N 40°39' W 074°08'1 2.9
2017-Sep-17 04:30N 40°39' W 074°07'2 3.7
2017-Sep-17 04:00N 40°40' W 074°04'1 2.5
2017-Sep-17 03:30N 40°40' W 074°03'0 0.0
2017-Sep-17 03:00N 40°40' W 074°03'2 3.0
2017-Sep-17 02:30N 40°40' W 074°05'0 0.2
2017-Sep-17 02:00N 40°40' W 074°05'0 0.0
2017-Sep-17 01:30N 40°40' W 074°05'0 0.0
2017-Sep-17 01:00N 40°40' W 074°05'0 0.0
2017-Sep-17 00:30N 40°40' W 074°05'0 0.0
2017-Sep-17 00:00N 40°40' W 074°05'2 3.9
2017-Sep-16 23:30N 40°39' W 074°07'4 7.8
2017-Sep-16 23:00N 40°38' W 074°12'5 8.3
2017-Sep-16 22:25N 40°33' W 074°13'1 0.6
2017-Sep-16 20:02N 40°35' W 074°13'1 6.0
2017-Sep-16 19:47N 40°36' W 074°12'2 6.1
2017-Sep-16 19:29N 40°38' W 074°12'3 6.0
2017-Sep-16 19:00N 40°39' W 074°08'4 7.4
2017-Sep-16 18:30N 40°39' W 074°04'4 7.7
2017-Sep-16 18:00N 40°35' W 074°02'1 2.2
2017-Sep-16 17:30N 40°34' W 074°02'3 5.3
2017-Sep-16 17:00N 40°31' W 074°00'3 5.9
2017-Sep-16 16:29N 40°30' W 073°57'2 4.9
2017-Sep-16 16:00N 40°29' W 073°54'3 5.2
2017-Sep-16 15:30N 40°26' W 073°54'37 7.5
2017-Sep-16 10:32N 39°49' W 073°58'0 8.2
2017-Sep-16 10:30N 39°49' W 073°58'4 7.9
2017-Sep-16 10:00N 39°45' W 073°59'4 7.9
2017-Sep-16 09:30N 39°41' W 073°59'4 8.0
2017-Sep-16 09:01N 39°37' W 073°60'4 7.9
2017-Sep-16 08:26N 39°33' W 074°03'3 7.9
2017-Sep-16 08:00N 39°30' W 074°05'4 7.9
2017-Sep-16 07:31N 39°27' W 074°09'4 7.9
2017-Sep-16 07:01N 39°24' W 074°12'4 7.8
2017-Sep-16 06:30N 39°21' W 074°15'4 7.8
2017-Sep-16 06:00N 39°18' W 074°19'4 7.7
2017-Sep-16 05:30N 39°16' W 074°22'4 7.8
2017-Sep-16 05:01N 39°12' W 074°25'4 7.8
2017-Sep-16 04:31N 39°09' W 074°28'4 7.7
2017-Sep-16 04:01N 39°07' W 074°31'4 7.8
2017-Sep-16 03:30N 39°04' W 074°35'4 7.8
2017-Sep-16 03:00N 39°01' W 074°39'4 7.9
2017-Sep-16 02:30N 38°58' W 074°42'4 7.9
2017-Sep-16 02:01N 38°55' W 074°44'4 7.9
2017-Sep-16 01:30N 38°51' W 074°47'4 8.0
2017-Sep-16 01:00N 38°49' W 074°51'17 7.0
2017-Sep-15 22:33N 38°59' W 075°08'1 7.5
2017-Sep-15 22:29N 38°60' W 075°08'4 7.2
2017-Sep-15 21:58N 39°03' W 075°10'3 6.2
2017-Sep-15 21:30N 39°06' W 075°12'3 5.6
2017-Sep-15 21:00N 39°08' W 075°14'3 5.6
2017-Sep-15 20:30N 39°10' W 075°16'3 5.3
2017-Sep-15 20:00N 39°13' W 075°18'3 6.0
2017-Sep-15 19:30N 39°15' W 075°20'3 6.4
2017-Sep-15 19:00N 39°18' W 075°22'3 6.8
2017-Sep-15 18:30N 39°20' W 075°26'2 4.8
2017-Sep-15 18:00N 39°22' W 075°28'3 5.9
2017-Sep-15 17:30N 39°24' W 075°30'510.2
2017-Sep-15 17:00N 39°28' W 075°34'510.4
2017-Sep-15 16:30N 39°33' W 075°33'5 9.5
2017-Sep-15 16:00N 39°38' W 075°34'510.1
2017-Sep-15 15:30N 39°42' W 075°31'5 9.5
2017-Sep-15 15:01N 39°46' W 075°28'4 7.7
2017-Sep-15 14:30N 39°49' W 075°24'0 0.1
2017-Sep-15 14:00N 39°49' W 075°24'3 6.1
2017-Sep-15 13:30N 39°51' W 075°21'4 8.3
2017-Sep-15 13:01N 39°51' W 075°16'4 7.6
2017-Sep-15 12:30N 39°53' W 075°12'1 1.0
2017-Sep-15 12:01N 39°54' W 075°12'0 0.0
2017-Sep-15 11:31N 39°54' W 075°12'0 0.0
2017-Sep-15 11:01N 39°54' W 075°12'0 0.0
2017-Sep-15 10:30N 39°54' W 075°12'0 0.0
2017-Sep-15 10:00N 39°54' W 075°12'0 0.0
2017-Sep-15 09:30N 39°54' W 075°12'0 0.0
2017-Sep-15 09:00N 39°54' W 075°12'0 0.0
2017-Sep-15 08:30N 39°54' W 075°12'0 0.0
2017-Sep-15 08:01N 39°54' W 075°12'0 0.0
2017-Sep-15 07:31N 39°54' W 075°12'0 0.0
2017-Sep-15 07:01N 39°54' W 075°12'0 0.0
2017-Sep-15 06:31N 39°54' W 075°12'0 0.0
2017-Sep-15 06:01N 39°54' W 075°12'0 0.0
2017-Sep-15 05:30N 39°54' W 075°12'0 0.0
2017-Sep-15 05:00N 39°54' W 075°12'0 0.0
2017-Sep-15 04:30N 39°54' W 075°12'0 0.0
2017-Sep-15 04:00N 39°54' W 075°12'0 0.0
2017-Sep-15 03:30N 39°54' W 075°12'0 0.0
2017-Sep-15 03:00N 39°54' W 075°12'0 0.0
2017-Sep-15 02:31N 39°54' W 075°12'0 0.0
2017-Sep-15 02:00N 39°54' W 075°12'0 0.0
2017-Sep-15 01:31N 39°54' W 075°12'0 0.0
2017-Sep-15 01:01N 39°54' W 075°12'0 0.0
2017-Sep-15 00:31N 39°54' W 075°12'0 0.0
2017-Sep-15 00:01N 39°54' W 075°12'0 0.0
2017-Sep-14 23:30N 39°54' W 075°12'0 0.0
2017-Sep-14 23:01N 39°54' W 075°12'0 0.0
2017-Sep-14 22:31N 39°54' W 075°12'0 0.0
2017-Sep-14 22:00N 39°54' W 075°12'0 0.0
2017-Sep-14 21:31N 39°54' W 075°12'0 0.0
2017-Sep-14 21:01N 39°54' W 075°12'0 0.0
2017-Sep-14 20:30N 39°54' W 075°12'0 0.0
2017-Sep-14 20:01N 39°54' W 075°12'0 0.0
2017-Sep-14 19:30N 39°54' W 075°12'0 0.0
2017-Sep-14 19:00N 39°54' W 075°12'1 1.8
2017-Sep-14 18:30N 39°53' W 075°12'4 7.9
2017-Sep-14 18:00N 39°51' W 075°16'4 8.5
2017-Sep-14 17:31N 39°50' W 075°22'2 4.3
2017-Sep-14 17:00N 39°49' W 075°24'1 1.2
2017-Sep-14 16:31N 39°48' W 075°25'4 7.4
2017-Sep-14 16:01N 39°46' W 075°28'4 7.9
2017-Sep-14 15:31N 39°42' W 075°31'2 3.9
2017-Sep-14 15:01N 39°41' W 075°31'4 7.9
2017-Sep-14 14:30N 39°38' W 075°35'4 7.7
2017-Sep-14 14:01N 39°34' W 075°33'4 8.0
2017-Sep-14 13:30N 39°30' W 075°33'3 5.4
2017-Sep-14 13:00N 39°27' W 075°33'2 4.2
2017-Sep-14 12:30N 39°26' W 075°32'4 8.5
2017-Sep-14 12:00N 39°22' W 075°28'5 9.2
2017-Sep-14 11:30N 39°19' W 075°24'5 9.4
2017-Sep-14 11:00N 39°15' W 075°20'5 9.4
2017-Sep-14 10:30N 39°11' W 075°17'5 9.5
2017-Sep-14 10:00N 39°08' W 075°13'5 9.2
2017-Sep-14 09:30N 39°04' W 075°10'5 9.0
2017-Sep-14 09:00N 38°59' W 075°08'4 9.0
2017-Sep-14 08:30N 38°55' W 075°05'5 9.4
2017-Sep-14 08:00N 38°51' W 075°03'5 9.1
2017-Sep-14 07:30N 38°48' W 074°58'5 9.6
2017-Sep-14 07:00N 38°50' W 074°52'5 9.1
2017-Sep-14 06:30N 38°53' W 074°48'5 9.4
2017-Sep-14 06:00N 38°56' W 074°45'5 9.3
2017-Sep-14 05:30N 39°00' W 074°41'5 9.3
2017-Sep-14 05:00N 39°03' W 074°36'5 9.3
2017-Sep-14 04:30N 39°06' W 074°32'7 9.3
2017-Sep-14 03:44N 39°12' W 074°26'7 9.2
2017-Sep-14 03:01N 39°17' W 074°20'12 9.1
2017-Sep-14 01:41N 39°26' W 074°10'3 9.2
2017-Sep-14 01:20N 39°29' W 074°08'6 9.2
2017-Sep-14 00:43N 39°33' W 074°03'5 9.2
2017-Sep-14 00:11N 39°37' W 074°00'2 9.3
2017-Sep-14 00:00N 39°39' W 073°60'5 9.1
2017-Sep-13 23:28N 39°44' W 073°59'5 9.2
2017-Sep-13 22:56N 39°49' W 073°58'40 9.0
2017-Sep-13 18:28N 40°29' W 073°55'4 8.3
2017-Sep-13 18:00N 40°31' W 073°59'4 7.2
2017-Sep-13 17:30N 40°34' W 074°02'2 3.7
2017-Sep-13 17:01N 40°36' W 074°01'0 0.0
2017-Sep-13 16:30N 40°36' W 074°01'0 0.0
2017-Sep-13 16:01N 40°36' W 074°01'0 0.0
2017-Sep-13 15:30N 40°36' W 074°01'0 0.0
2017-Sep-13 15:01N 40°36' W 074°01'0 0.0
2017-Sep-13 14:30N 40°36' W 074°01'0 0.0
2017-Sep-13 14:00N 40°36' W 074°01'0 0.0
2017-Sep-13 13:30N 40°36' W 074°01'0 0.1
2017-Sep-13 13:00N 40°36' W 074°01'0 0.1
2017-Sep-13 12:30N 40°36' W 074°01'0 0.0
2017-Sep-13 12:00N 40°36' W 074°01'0 0.0
2017-Sep-13 11:30N 40°36' W 074°01'0 0.0
2017-Sep-13 11:00N 40°36' W 074°01'0 0.0
2017-Sep-13 10:30N 40°36' W 074°01'0 0.0
2017-Sep-13 10:00N 40°36' W 074°01'0 0.0
2017-Sep-13 09:30N 40°36' W 074°01'0 0.1
2017-Sep-13 09:01N 40°36' W 074°01'0 0.0
2017-Sep-13 08:31N 40°36' W 074°01'0 0.0
2017-Sep-13 08:01N 40°36' W 074°01'0 0.0
2017-Sep-13 07:30N 40°36' W 074°01'0 0.0
2017-Sep-13 07:00N 40°36' W 074°01'0 0.0
2017-Sep-13 06:31N 40°36' W 074°01'0 0.0
2017-Sep-13 06:00N 40°36' W 074°01'0 0.0
2017-Sep-13 05:31N 40°36' W 074°01'0 0.0
2017-Sep-13 05:01N 40°36' W 074°01'0 0.0
2017-Sep-13 04:31N 40°36' W 074°01'0 0.0
2017-Sep-13 04:01N 40°36' W 074°01'0 0.0
2017-Sep-13 03:30N 40°36' W 074°01'0 0.0
2017-Sep-13 03:01N 40°36' W 074°01'2 3.5
2017-Sep-13 02:30N 40°34' W 074°02'4 8.7
2017-Sep-13 02:00N 40°30' W 074°03'4 6.8
2017-Sep-13 01:26N 40°30' W 074°08'7 1.5
2017-Sep-12 20:30N 40°36' W 074°12'3 6.6
2017-Sep-12 20:00N 40°39' W 074°09'4 7.2
2017-Sep-12 19:30N 40°39' W 074°04'3 6.4
2017-Sep-12 19:01N 40°40' W 074°00'0 0.0
2017-Sep-12 18:31N 40°40' W 074°00'0 0.0
2017-Sep-12 18:01N 40°40' W 074°00'0 0.0
2017-Sep-12 17:31N 40°40' W 074°00'0 0.0
2017-Sep-12 17:01N 40°40' W 074°00'0 0.0
2017-Sep-12 16:31N 40°40' W 074°00'0 0.0
2017-Sep-12 16:01N 40°40' W 074°00'0 0.0
2017-Sep-12 15:31N 40°40' W 074°00'0 0.0
2017-Sep-12 15:01N 40°40' W 074°00'0 0.0
2017-Sep-12 14:31N 40°40' W 074°00'0 0.0
2017-Sep-12 14:00N 40°40' W 074°00'0 0.0
2017-Sep-12 13:30N 40°40' W 074°00'0 0.0
2017-Sep-12 13:01N 40°40' W 074°00'0 0.0
2017-Sep-12 12:31N 40°40' W 074°00'0 0.0
2017-Sep-12 12:01N 40°40' W 074°00'0 0.0
2017-Sep-12 11:31N 40°40' W 074°00'0 0.6
2017-Sep-12 11:01N 40°40' W 074°00'0 0.0
2017-Sep-12 10:30N 40°40' W 074°00'3 5.2
2017-Sep-12 10:00N 40°39' W 074°03'5 9.2
2017-Sep-12 09:31N 40°39' W 074°09'3 6.1
2017-Sep-12 09:00N 40°37' W 074°12'3 6.6
2017-Sep-12 08:30N 40°33' W 074°13'2 3.4
2017-Sep-12 07:57N 40°32' W 074°15'3 2.2
2017-Sep-12 06:39N 40°29' W 074°15'1 4.4
2017-Sep-12 06:22N 40°30' W 074°13'1 3.5
2017-Sep-12 05:57N 40°30' W 074°11'3 6.1
2017-Sep-12 05:28N 40°30' W 074°08'4 6.7
2017-Sep-12 04:52N 40°29' W 074°03'3 6.9
2017-Sep-12 04:30N 40°29' W 073°59'4 8.5
2017-Sep-12 04:00N 40°26' W 073°55'38 6.8
2017-Sep-11 22:24N 39°48' W 073°58'3 7.2
2017-Sep-11 22:01N 39°46' W 073°58'4 7.2
2017-Sep-11 21:31N 39°42' W 073°58'4 6.7
2017-Sep-11 20:57N 39°38' W 073°59'4 6.9
2017-Sep-11 20:27N 39°35' W 074°02'3 6.9
2017-Sep-11 19:59N 39°32' W 074°04'40 6.9
2017-Sep-11 14:04N 39°02' W 074°37'1 6.5
2017-Sep-11 13:54N 39°01' W 074°39'3 6.5
2017-Sep-11 13:30N 38°59' W 074°41'3 6.6
2017-Sep-11 13:00N 38°57' W 074°44'3 6.7
2017-Sep-11 12:30N 38°54' W 074°46'3 6.7
2017-Sep-11 11:59N 38°51' W 074°49'9 6.8
2017-Sep-11 10:36N 38°48' W 074°60'1 7.8
2017-Sep-11 10:30N 38°48' W 075°01'4 8.4
2017-Sep-11 10:00N 38°52' W 075°04'4 8.4
2017-Sep-11 09:30N 38°56' W 075°06'4 7.2
2017-Sep-11 08:58N 38°59' W 075°08'2 3.8
2017-Sep-11 08:30N 39°00' W 075°10'2 4.0
2017-Sep-11 08:00N 39°02' W 075°10'4 8.6
2017-Sep-11 07:30N 39°06' W 075°12'4 8.1
2017-Sep-11 07:01N 39°10' W 075°15'4 7.4
2017-Sep-11 06:30N 39°13' W 075°18'3 6.8
2017-Sep-11 06:00N 39°16' W 075°20'3 6.2
2017-Sep-11 05:30N 39°18' W 075°23'3 6.0
2017-Sep-11 05:00N 39°20' W 075°25'3 6.0
2017-Sep-11 04:30N 39°22' W 075°28'3 6.3
2017-Sep-11 04:00N 39°25' W 075°31'3 6.8
2017-Sep-11 03:30N 39°27' W 075°33'4 7.5
2017-Sep-11 03:01N 39°31' W 075°33'4 7.8
2017-Sep-11 02:30N 39°35' W 075°34'4 8.1
2017-Sep-11 02:00N 39°39' W 075°33'5 9.7
2017-Sep-11 01:31N 39°43' W 075°30'5 9.3
2017-Sep-11 01:00N 39°47' W 075°27'3 5.4
2017-Sep-11 00:31N 39°49' W 075°24'0 0.0
2017-Sep-11 00:00N 39°49' W 075°24'3 6.4
2017-Sep-10 23:31N 39°51' W 075°21'5 9.7
2017-Sep-10 23:00N 39°51' W 075°15'3 5.7
2017-Sep-10 22:30N 39°54' W 075°12'0 0.0
2017-Sep-10 22:00N 39°54' W 075°12'1 1.3
2017-Sep-10 21:30N 39°53' W 075°12'2 3.7
2017-Sep-10 21:00N 39°53' W 075°09'0 0.0
2017-Sep-10 20:31N 39°53' W 075°09'1 2.4
2017-Sep-10 20:01N 39°54' W 075°08'1 1.2
2017-Sep-10 19:31N 39°54' W 075°08'0 0.0
2017-Sep-10 19:00N 39°54' W 075°08'2 4.1
2017-Sep-10 18:30N 39°56' W 075°08'3 5.4
2017-Sep-10 18:00N 39°58' W 075°06'2 3.4
2017-Sep-10 17:30N 39°59' W 075°04'1 1.0
2017-Sep-10 17:00N 39°59' W 075°05'0 0.0
2017-Sep-10 16:31N 39°59' W 075°05'0 0.0
2017-Sep-10 16:00N 39°59' W 075°05'0 0.0
2017-Sep-10 15:30N 39°59' W 075°05'0 0.0
2017-Sep-10 15:00N 39°59' W 075°05'0 0.0
2017-Sep-10 14:00N 39°59' W 075°05'1 1.9
2017-Sep-10 13:30N 39°58' W 075°06'1 2.9
2017-Sep-10 13:01N 39°59' W 075°04'1 2.9
2017-Sep-10 12:30N 39°58' W 075°06'3 6.1
2017-Sep-10 12:00N 39°56' W 075°08'2 4.3
2017-Sep-10 11:31N 39°54' W 075°08'0 0.0
2017-Sep-10 11:00N 39°54' W 075°08'2 4.5
2017-Sep-10 10:30N 39°53' W 075°11'4 8.7
2017-Sep-10 10:01N 39°51' W 075°16'5 9.0
2017-Sep-10 09:31N 39°50' W 075°22'2 4.1
2017-Sep-10 09:01N 39°49' W 075°24'1 1.2
2017-Sep-10 08:30N 39°49' W 075°24'4 7.3
2017-Sep-10 08:00N 39°51' W 075°19'4 7.2
2017-Sep-10 07:31N 39°51' W 075°15'3 6.5
2017-Sep-10 07:01N 39°54' W 075°12'1 1.1
2017-Sep-10 06:31N 39°54' W 075°12'2 4.1
2017-Sep-10 06:01N 39°53' W 075°10'2 3.8
2017-Sep-10 05:30N 39°54' W 075°08'0 0.3
2017-Sep-10 05:00N 39°54' W 075°08'0 0.6
2017-Sep-10 04:31N 39°54' W 075°08'0 0.0
2017-Sep-10 04:01N 39°54' W 075°08'0 0.3
2017-Sep-10 03:31N 39°54' W 075°08'3 5.1
2017-Sep-10 03:00N 39°54' W 075°12'0 0.0
2017-Sep-10 02:31N 39°54' W 075°12'0 0.0
2017-Sep-10 02:00N 39°54' W 075°12'0 0.0
2017-Sep-10 01:31N 39°54' W 075°12'0 0.0
2017-Sep-10 01:00N 39°54' W 075°12'3 5.1
2017-Sep-10 00:31N 39°52' W 075°14'4 8.1
2017-Sep-10 00:00N 39°51' W 075°19'4 7.7
2017-Sep-09 23:30N 39°49' W 075°23'1 1.7
2017-Sep-09 23:01N 39°49' W 075°24'0 0.5
2017-Sep-09 22:31N 39°49' W 075°24'5 9.6
2017-Sep-09 22:00N 39°51' W 075°19'5 9.3
2017-Sep-09 21:31N 39°52' W 075°13'4 8.7
2017-Sep-09 21:00N 39°54' W 075°08'4 7.6
2017-Sep-09 20:30N 39°58' W 075°07'2 4.0
2017-Sep-09 20:00N 39°59' W 075°04'0 0.1
2017-Sep-09 19:31N 39°59' W 075°04'0 0.9
2017-Sep-09 19:00N 39°59' W 075°05'0 0.0
2017-Sep-09 18:30N 39°59' W 075°05'0 0.0
2017-Sep-09 18:00N 39°59' W 075°05'0 0.0
2017-Sep-09 17:30N 39°59' W 075°05'0 0.0
2017-Sep-09 17:00N 39°59' W 075°05'0 0.0
2017-Sep-09 16:30N 39°59' W 075°05'0 0.0
2017-Sep-09 16:00N 39°59' W 075°05'0 0.0
2017-Sep-09 15:30N 39°59' W 075°05'3 5.6
2017-Sep-09 15:00N 39°57' W 075°08'4 7.8
2017-Sep-09 14:30N 39°53' W 075°08'1 2.1
2017-Sep-09 14:00N 39°53' W 075°09'  
Track history (hours):
 
Tides and Currents Weather Stations Pressure Air Temp Water Temp Dewpoint Dewpoint Depression Visibility Wind Speed Wind Dir Waves Ship Positions

Severn

Owner: Vane Line Bunkering, Inc., Philadelphia, PA. More information available from US FCC via Universal Licensing System and Coast Guard Vessel Documentation Center.

Last reported at 2017-Sep-19 13:52 UTC. Time now 2017-Sep-19 20:35 UTC.
Position N 40°56' W 073°55'.

Length 33 m; draft 5 m.

Type: Towing. MMSI: 367371840.

Date/timePositionNaut miles runAvg speedWind from/ knotsBaromVisibWave heightAir tempDewpointWater temp
2017-Sep-19 13:52N 40°56' W 073°55'0 0.0
2017-Sep-19 11:58N 40°56' W 073°55'0 0.0
2017-Sep-19 03:06N 40°56' W 073°55'0 0.0
2017-Sep-19 00:47N 40°56' W 073°55'4 1.1
2017-Sep-18 21:21N 40°53' W 073°56'3 7.8
2017-Sep-18 21:00N 40°50' W 073°58'4 7.4
2017-Sep-18 20:30N 40°47' W 073°60'3 6.8
2017-Sep-18 20:00N 40°44' W 074°01'3 6.7
2017-Sep-18 19:30N 40°40' W 074°02'1 2.3
2017-Sep-18 19:00N 40°39' W 074°02'0 0.0
2017-Sep-18 18:30N 40°39' W 074°02'0 0.0
2017-Sep-18 18:00N 40°39' W 074°03'0 0.1
2017-Sep-18 17:30N 40°39' W 074°02'0 0.0
2017-Sep-18 17:00N 40°39' W 074°02'0 0.0
2017-Sep-18 16:30N 40°39' W 074°02'0 0.1
2017-Sep-18 16:00N 40°39' W 074°03'4 7.1
2017-Sep-18 15:30N 40°39' W 074°07'2 4.2
2017-Sep-18 15:00N 40°39' W 074°10'3 5.9
2017-Sep-18 14:30N 40°36' W 074°12'0 0.3
2017-Sep-18 12:58N 40°36' W 074°12'0 0.3
2017-Sep-18 12:20N 40°36' W 074°12'1 0.2
2017-Sep-18 08:35N 40°36' W 074°12'1 7.3
2017-Sep-18 08:30N 40°37' W 074°12'3 6.8
2017-Sep-18 08:00N 40°39' W 074°08'611.0
2017-Sep-18 07:30N 40°41' W 074°02'1 2.6
2017-Sep-18 07:00N 40°41' W 074°00'3 6.3
2017-Sep-18 06:30N 40°39' W 074°03'2 3.1
2017-Sep-18 06:00N 40°39' W 074°05'0 0.1
2017-Sep-18 05:30N 40°39' W 074°05'0 0.9
2017-Sep-18 05:00N 40°39' W 074°05'3 6.8
2017-Sep-18 04:30N 40°40' W 074°01'0 0.3
2017-Sep-18 04:00N 40°40' W 074°00'0 0.1
2017-Sep-18 03:31N 40°40' W 074°00'0 0.5
2017-Sep-18 03:00N 40°40' W 074°00'0 0.0
2017-Sep-18 02:30N 40°40' W 074°00'0 0.0
2017-Sep-18 02:00N 40°40' W 074°00'0 0.0
2017-Sep-18 01:30N 40°40' W 074°00'2 3.4
2017-Sep-18 01:00N 40°39' W 074°02'3 5.9
2017-Sep-18 00:30N 40°39' W 074°06'0 0.0
2017-Sep-18 00:00N 40°39' W 074°06'0 0.0
2017-Sep-17 23:30N 40°39' W 074°06'0 0.0
2017-Sep-17 23:00N 40°39' W 074°06'0 0.0
2017-Sep-17 22:30N 40°39' W 074°06'0 0.0
2017-Sep-17 22:00N 40°39' W 074°06'0 0.0
2017-Sep-17 21:30N 40°39' W 074°06'0 0.0
2017-Sep-17 21:00N 40°39' W 074°06'0 0.0
2017-Sep-17 20:30N 40°39' W 074°06'0 0.0
2017-Sep-17 20:00N 40°39' W 074°06'0 0.0
2017-Sep-17 19:30N 40°39' W 074°06'0 0.0
2017-Sep-17 19:00N 40°39' W 074°06'0 0.0
2017-Sep-17 18:30N 40°39' W 074°06'0 0.0
2017-Sep-17 18:00N 40°39' W 074°06'0 0.5
2017-Sep-17 17:30N 40°39' W 074°06'0 0.3
2017-Sep-17 17:00N 40°39' W 074°05'1 2.5
2017-Sep-17 16:30N 40°39' W 074°07'0 0.0
2017-Sep-17 16:00N 40°39' W 074°07'2 4.2
2017-Sep-17 15:30N 40°39' W 074°10'3 5.7
2017-Sep-17 14:57N 40°36' W 074°12'0 0.0
2017-Sep-17 14:30N 40°36' W 074°12'2 4.2
2017-Sep-17 13:59N 40°34' W 074°13'2 1.7
2017-Sep-17 12:50N 40°33' W 074°15'0 0.0
2017-Sep-17 12:19N 40°33' W 074°15'0 0.0
2017-Sep-17 12:00N 40°33' W 074°15'0 0.0
2017-Sep-17 11:30N 40°33' W 074°15'0 0.0
2017-Sep-17 06:07N 40°33' W 074°15'0 2.4
2017-Sep-17 06:00N 40°33' W 074°15'4 8.2
2017-Sep-17 05:30N 40°37' W 074°12'4 7.2
2017-Sep-17 05:00N 40°39' W 074°08'1 2.9
2017-Sep-17 04:30N 40°39' W 074°07'2 3.7
2017-Sep-17 04:00N 40°40' W 074°04'1 2.5
2017-Sep-17 03:30N 40°40' W 074°03'0 0.0
2017-Sep-17 03:00N 40°40' W 074°03'2 3.0
2017-Sep-17 02:30N 40°40' W 074°05'0 0.2
2017-Sep-17 02:00N 40°40' W 074°05'0 0.0
2017-Sep-17 01:30N 40°40' W 074°05'0 0.0
2017-Sep-17 01:00N 40°40' W 074°05'0 0.0
2017-Sep-17 00:30N 40°40' W 074°05'0 0.0
2017-Sep-17 00:00N 40°40' W 074°05'2 3.9
2017-Sep-16 23:30N 40°39' W 074°07'4 7.8
2017-Sep-16 23:00N 40°38' W 074°12'5 8.3
2017-Sep-16 22:25N 40°33' W 074°13'1 0.6
2017-Sep-16 20:02N 40°35' W 074°13'1 6.0
2017-Sep-16 19:47N 40°36' W 074°12'2 6.1
2017-Sep-16 19:29N 40°38' W 074°12'3 6.0
2017-Sep-16 19:00N 40°39' W 074°08'4 7.4
2017-Sep-16 18:30N 40°39' W 074°04'4 7.7
2017-Sep-16 18:00N 40°35' W 074°02'1 2.2
2017-Sep-16 17:30N 40°34' W 074°02'3 5.3
2017-Sep-16 17:00N 40°31' W 074°00'3 5.9
2017-Sep-16 16:29N 40°30' W 073°57'2 4.9
2017-Sep-16 16:00N 40°29' W 073°54'3 5.2
2017-Sep-16 15:30N 40°26' W 073°54'37 7.5
2017-Sep-16 10:32N 39°49' W 073°58'0 8.2
2017-Sep-16 10:30N 39°49' W 073°58'4 7.9
2017-Sep-16 10:00N 39°45' W 073°59'4 7.9
2017-Sep-16 09:30N 39°41' W 073°59'4 8.0
2017-Sep-16 09:01N 39°37' W 073°60'4 7.9
2017-Sep-16 08:26N 39°33' W 074°03'3 7.9
2017-Sep-16 08:00N 39°30' W 074°05'4 7.9
2017-Sep-16 07:31N 39°27' W 074°09'4 7.9
2017-Sep-16 07:01N 39°24' W 074°12'4 7.8
2017-Sep-16 06:30N 39°21' W 074°15'4 7.8
2017-Sep-16 06:00N 39°18' W 074°19'4 7.7
2017-Sep-16 05:30N 39°16' W 074°22'4 7.8
2017-Sep-16 05:01N 39°12' W 074°25'4 7.8
2017-Sep-16 04:31N 39°09' W 074°28'4 7.7
2017-Sep-16 04:01N 39°07' W 074°31'4 7.8
2017-Sep-16 03:30N 39°04' W 074°35'4 7.8
2017-Sep-16 03:00N 39°01' W 074°39'4 7.9
2017-Sep-16 02:30N 38°58' W 074°42'4 7.9
2017-Sep-16 02:01N 38°55' W 074°44'4 7.9
2017-Sep-16 01:30N 38°51' W 074°47'4 8.0
2017-Sep-16 01:00N 38°49' W 074°51'17 7.0
2017-Sep-15 22:33N 38°59' W 075°08'1 7.5
2017-Sep-15 22:29N 38°60' W 075°08'4 7.2
2017-Sep-15 21:58N 39°03' W 075°10'3 6.2
2017-Sep-15 21:30N 39°06' W 075°12'3 5.6
2017-Sep-15 21:00N 39°08' W 075°14'3 5.6
2017-Sep-15 20:30N 39°10' W 075°16'3 5.3
2017-Sep-15 20:00N 39°13' W 075°18'3 6.0
2017-Sep-15 19:30N 39°15' W 075°20'3 6.4
2017-Sep-15 19:00N 39°18' W 075°22'3 6.8
2017-Sep-15 18:30N 39°20' W 075°26'2 4.8
2017-Sep-15 18:00N 39°22' W 075°28'3 5.9
2017-Sep-15 17:30N 39°24' W 075°30'510.2
2017-Sep-15 17:00N 39°28' W 075°34'510.4
2017-Sep-15 16:30N 39°33' W 075°33'5 9.5
2017-Sep-15 16:00N 39°38' W 075°34'510.1
2017-Sep-15 15:30N 39°42' W 075°31'5 9.5
2017-Sep-15 15:01N 39°46' W 075°28'4 7.7
2017-Sep-15 14:30N 39°49' W 075°24'0 0.1
2017-Sep-15 14:00N 39°49' W 075°24'3 6.1
2017-Sep-15 13:30N 39°51' W 075°21'4 8.3
2017-Sep-15 13:01N 39°51' W 075°16'4 7.6
2017-Sep-15 12:30N 39°53' W 075°12'1 1.0
2017-Sep-15 12:01N 39°54' W 075°12'0 0.0
2017-Sep-15 11:31N 39°54' W 075°12'0 0.0
2017-Sep-15 11:01N 39°54' W 075°12'0 0.0
2017-Sep-15 10:30N 39°54' W 075°12'0 0.0
2017-Sep-15 10:00N 39°54' W 075°12'0 0.0
2017-Sep-15 09:30N 39°54' W 075°12'0 0.0
2017-Sep-15 09:00N 39°54' W 075°12'0 0.0
2017-Sep-15 08:30N 39°54' W 075°12'0 0.0
2017-Sep-15 08:01N 39°54' W 075°12'0 0.0
2017-Sep-15 07:31N 39°54' W 075°12'0 0.0
2017-Sep-15 07:01N 39°54' W 075°12'0 0.0
2017-Sep-15 06:31N 39°54' W 075°12'0 0.0
2017-Sep-15 06:01N 39°54' W 075°12'0 0.0
2017-Sep-15 05:30N 39°54' W 075°12'0 0.0
2017-Sep-15 05:00N 39°54' W 075°12'0 0.0
2017-Sep-15 04:30N 39°54' W 075°12'0 0.0
2017-Sep-15 04:00N 39°54' W 075°12'0 0.0
2017-Sep-15 03:30N 39°54' W 075°12'0 0.0
2017-Sep-15 03:00N 39°54' W 075°12'0 0.0
2017-Sep-15 02:31N 39°54' W 075°12'0 0.0
2017-Sep-15 02:00N 39°54' W 075°12'0 0.0
2017-Sep-15 01:31N 39°54' W 075°12'0 0.0
2017-Sep-15 01:01N 39°54' W 075°12'0 0.0
2017-Sep-15 00:31N 39°54' W 075°12'0 0.0
2017-Sep-15 00:01N 39°54' W 075°12'0 0.0
2017-Sep-14 23:30N 39°54' W 075°12'0 0.0
2017-Sep-14 23:01N 39°54' W 075°12'0 0.0
2017-Sep-14 22:31N 39°54' W 075°12'0 0.0
2017-Sep-14 22:00N 39°54' W 075°12'0 0.0
2017-Sep-14 21:31N 39°54' W 075°12'0 0.0
2017-Sep-14 21:01N 39°54' W 075°12'0 0.0
2017-Sep-14 20:30N 39°54' W 075°12'0 0.0
2017-Sep-14 20:01N 39°54' W 075°12'0 0.0
2017-Sep-14 19:30N 39°54' W 075°12'0 0.0
2017-Sep-14 19:00N 39°54' W 075°12'1 1.8
2017-Sep-14 18:30N 39°53' W 075°12'4 7.9
2017-Sep-14 18:00N 39°51' W 075°16'4 8.5
2017-Sep-14 17:31N 39°50' W 075°22'2 4.3
2017-Sep-14 17:00N 39°49' W 075°24'1 1.2
2017-Sep-14 16:31N 39°48' W 075°25'4 7.4
2017-Sep-14 16:01N 39°46' W 075°28'4 7.9
2017-Sep-14 15:31N 39°42' W 075°31'2 3.9
2017-Sep-14 15:01N 39°41' W 075°31'4 7.9
2017-Sep-14 14:30N 39°38' W 075°35'4 7.7
2017-Sep-14 14:01N 39°34' W 075°33'4 8.0
2017-Sep-14 13:30N 39°30' W 075°33'3 5.4
2017-Sep-14 13:00N 39°27' W 075°33'2 4.2
2017-Sep-14 12:30N 39°26' W 075°32'4 8.5
2017-Sep-14 12:00N 39°22' W 075°28'5 9.2
2017-Sep-14 11:30N 39°19' W 075°24'5 9.4
2017-Sep-14 11:00N 39°15' W 075°20'5 9.4
2017-Sep-14 10:30N 39°11' W 075°17'5 9.5
2017-Sep-14 10:00N 39°08' W 075°13'5 9.2
2017-Sep-14 09:30N 39°04' W 075°10'5 9.0
2017-Sep-14 09:00N 38°59' W 075°08'4 9.0
2017-Sep-14 08:30N 38°55' W 075°05'5 9.4
2017-Sep-14 08:00N 38°51' W 075°03'5 9.1
2017-Sep-14 07:30N 38°48' W 074°58'5 9.6
2017-Sep-14 07:00N 38°50' W 074°52'5 9.1
2017-Sep-14 06:30N 38°53' W 074°48'5 9.4
2017-Sep-14 06:00N 38°56' W 074°45'5 9.3
2017-Sep-14 05:30N 39°00' W 074°41'5 9.3
2017-Sep-14 05:00N 39°03' W 074°36'5 9.3
2017-Sep-14 04:30N 39°06' W 074°32'7 9.3
2017-Sep-14 03:44N 39°12' W 074°26'7 9.2
2017-Sep-14 03:01N 39°17' W 074°20'12 9.1
2017-Sep-14 01:41N 39°26' W 074°10'3 9.2
2017-Sep-14 01:20N 39°29' W 074°08'6 9.2
2017-Sep-14 00:43N 39°33' W 074°03'5 9.2
2017-Sep-14 00:11N 39°37' W 074°00'2 9.3
2017-Sep-14 00:00N 39°39' W 073°60'5 9.1
2017-Sep-13 23:28N 39°44' W 073°59'5 9.2
2017-Sep-13 22:56N 39°49' W 073°58'40 9.0
2017-Sep-13 18:28N 40°29' W 073°55'4 8.3
2017-Sep-13 18:00N 40°31' W 073°59'4 7.2
2017-Sep-13 17:30N 40°34' W 074°02'2 3.7
2017-Sep-13 17:01N 40°36' W 074°01'0 0.0
2017-Sep-13 16:30N 40°36' W 074°01'0 0.0
2017-Sep-13 16:01N 40°36' W 074°01'0 0.0
2017-Sep-13 15:30N 40°36' W 074°01'0 0.0
2017-Sep-13 15:01N 40°36' W 074°01'0 0.0
2017-Sep-13 14:30N 40°36' W 074°01'0 0.0
2017-Sep-13 14:00N 40°36' W 074°01'0 0.0
2017-Sep-13 13:30N 40°36' W 074°01'0 0.1
2017-Sep-13 13:00N 40°36' W 074°01'0 0.1
2017-Sep-13 12:30N 40°36' W 074°01'0 0.0
2017-Sep-13 12:00N 40°36' W 074°01'0 0.0
2017-Sep-13 11:30N 40°36' W 074°01'0 0.0
2017-Sep-13 11:00N 40°36' W 074°01'0 0.0
2017-Sep-13 10:30N 40°36' W 074°01'0 0.0
2017-Sep-13 10:00N 40°36' W 074°01'0 0.0
2017-Sep-13 09:30N 40°36' W 074°01'0 0.1
2017-Sep-13 09:01N 40°36' W 074°01'0 0.0
2017-Sep-13 08:31N 40°36' W 074°01'0 0.0
2017-Sep-13 08:01N 40°36' W 074°01'0 0.0
2017-Sep-13 07:30N 40°36' W 074°01'0 0.0
2017-Sep-13 07:00N 40°36' W 074°01'0 0.0
2017-Sep-13 06:31N 40°36' W 074°01'0 0.0
2017-Sep-13 06:00N 40°36' W 074°01'0 0.0
2017-Sep-13 05:31N 40°36' W 074°01'0 0.0
2017-Sep-13 05:01N 40°36' W 074°01'0 0.0
2017-Sep-13 04:31N 40°36' W 074°01'0 0.0
2017-Sep-13 04:01N 40°36' W 074°01'0 0.0
2017-Sep-13 03:30N 40°36' W 074°01'0 0.0
2017-Sep-13 03:01N 40°36' W 074°01'2 3.5
2017-Sep-13 02:30N 40°34' W 074°02'4 8.7
2017-Sep-13 02:00N 40°30' W 074°03'4 6.8
2017-Sep-13 01:26N 40°30' W 074°08'7 1.5
2017-Sep-12 20:30N 40°36' W 074°12'3 6.6
2017-Sep-12 20:00N 40°39' W 074°09'4 7.2
2017-Sep-12 19:30N 40°39' W 074°04'3 6.4
2017-Sep-12 19:01N 40°40' W 074°00'0 0.0
2017-Sep-12 18:31N 40°40' W 074°00'0 0.0
2017-Sep-12 18:01N 40°40' W 074°00'0 0.0
2017-Sep-12 17:31N 40°40' W 074°00'0 0.0
2017-Sep-12 17:01N 40°40' W 074°00'0 0.0
2017-Sep-12 16:31N 40°40' W 074°00'0 0.0
2017-Sep-12 16:01N 40°40' W 074°00'0 0.0
2017-Sep-12 15:31N 40°40' W 074°00'0 0.0
2017-Sep-12 15:01N 40°40' W 074°00'0 0.0
2017-Sep-12 14:31N 40°40' W 074°00'0 0.0
2017-Sep-12 14:00N 40°40' W 074°00'0 0.0
2017-Sep-12 13:30N 40°40' W 074°00'0 0.0
2017-Sep-12 13:01N 40°40' W 074°00'0 0.0
2017-Sep-12 12:31N 40°40' W 074°00'0 0.0
2017-Sep-12 12:01N 40°40' W 074°00'0 0.0
2017-Sep-12 11:31N 40°40' W 074°00'0 0.6
2017-Sep-12 11:01N 40°40' W 074°00'0 0.0
2017-Sep-12 10:30N 40°40' W 074°00'3 5.2
2017-Sep-12 10:00N 40°39' W 074°03'5 9.2
2017-Sep-12 09:31N 40°39' W 074°09'3 6.1
2017-Sep-12 09:00N 40°37' W 074°12'3 6.6
2017-Sep-12 08:30N 40°33' W 074°13'2 3.4
2017-Sep-12 07:57N 40°32' W 074°15'3 2.2
2017-Sep-12 06:39N 40°29' W 074°15'1 4.4
2017-Sep-12 06:22N 40°30' W 074°13'1 3.5
2017-Sep-12 05:57N 40°30' W 074°11'3 6.1
2017-Sep-12 05:28N 40°30' W 074°08'4 6.7
2017-Sep-12 04:52N 40°29' W 074°03'3 6.9
2017-Sep-12 04:30N 40°29' W 073°59'4 8.5
2017-Sep-12 04:00N 40°26' W 073°55'38 6.8
2017-Sep-11 22:24N 39°48' W 073°58'3 7.2
2017-Sep-11 22:01N 39°46' W 073°58'4 7.2
2017-Sep-11 21:31N 39°42' W 073°58'4 6.7
2017-Sep-11 20:57N 39°38' W 073°59'4 6.9
2017-Sep-11 20:27N 39°35' W 074°02'3 6.9
2017-Sep-11 19:59N 39°32' W 074°04'40 6.9
2017-Sep-11 14:04N 39°02' W 074°37'1 6.5
2017-Sep-11 13:54N 39°01' W 074°39'3 6.5
2017-Sep-11 13:30N 38°59' W 074°41'3 6.6
2017-Sep-11 13:00N 38°57' W 074°44'3 6.7
2017-Sep-11 12:30N 38°54' W 074°46'3 6.7
2017-Sep-11 11:59N 38°51' W 074°49'9 6.8
2017-Sep-11 10:36N 38°48' W 074°60'1 7.8
2017-Sep-11 10:30N 38°48' W 075°01'4 8.4
2017-Sep-11 10:00N 38°52' W 075°04'4 8.4
2017-Sep-11 09:30N 38°56' W 075°06'4 7.2
2017-Sep-11 08:58N 38°59' W 075°08'2 3.8
2017-Sep-11 08:30N 39°00' W 075°10'2 4.0
2017-Sep-11 08:00N 39°02' W 075°10'4 8.6
2017-Sep-11 07:30N 39°06' W 075°12'4 8.1
2017-Sep-11 07:01N 39°10' W 075°15'4 7.4
2017-Sep-11 06:30N 39°13' W 075°18'3 6.8
2017-Sep-11 06:00N 39°16' W 075°20'3 6.2
2017-Sep-11 05:30N 39°18' W 075°23'3 6.0
2017-Sep-11 05:00N 39°20' W 075°25'3 6.0
2017-Sep-11 04:30N 39°22' W 075°28'3 6.3
2017-Sep-11 04:00N 39°25' W 075°31'3 6.8
2017-Sep-11 03:30N 39°27' W 075°33'4 7.5
2017-Sep-11 03:01N 39°31' W 075°33'4 7.8
2017-Sep-11 02:30N 39°35' W 075°34'4 8.1
2017-Sep-11 02:00N 39°39' W 075°33'5 9.7
2017-Sep-11 01:31N 39°43' W 075°30'5 9.3
2017-Sep-11 01:00N 39°47' W 075°27'3 5.4
2017-Sep-11 00:31N 39°49' W 075°24'0 0.0
2017-Sep-11 00:00N 39°49' W 075°24'3 6.4
2017-Sep-10 23:31N 39°51' W 075°21'5 9.7
2017-Sep-10 23:00N 39°51' W 075°15'3 5.7
2017-Sep-10 22:30N 39°54' W 075°12'0 0.0
2017-Sep-10 22:00N 39°54' W 075°12'1 1.3
2017-Sep-10 21:30N 39°53' W 075°12'2 3.7
2017-Sep-10 21:00N 39°53' W 075°09'0 0.0
2017-Sep-10 20:31N 39°53' W 075°09'1 2.4
2017-Sep-10 20:01N 39°54' W 075°08'1 1.2
2017-Sep-10 19:31N 39°54' W 075°08'0 0.0
2017-Sep-10 19:00N 39°54' W 075°08'2 4.1
2017-Sep-10 18:30N 39°56' W 075°08'3 5.4
2017-Sep-10 18:00N 39°58' W 075°06'2 3.4
2017-Sep-10 17:30N 39°59' W 075°04'1 1.0
2017-Sep-10 17:00N 39°59' W 075°05'0 0.0
2017-Sep-10 16:31N 39°59' W 075°05'0 0.0
2017-Sep-10 16:00N 39°59' W 075°05'0 0.0
2017-Sep-10 15:30N 39°59' W 075°05'0 0.0
2017-Sep-10 15:00N 39°59' W 075°05'0 0.0
2017-Sep-10 14:00N 39°59' W 075°05'1 1.9
2017-Sep-10 13:30N 39°58' W 075°06'1 2.9
2017-Sep-10 13:01N 39°59' W 075°04'1 2.9
2017-Sep-10 12:30N 39°58' W 075°06'3 6.1
2017-Sep-10 12:00N 39°56' W 075°08'2 4.3
2017-Sep-10 11:31N 39°54' W 075°08'0 0.0
2017-Sep-10 11:00N 39°54' W 075°08'2 4.5
2017-Sep-10 10:30N 39°53' W 075°11'4 8.7
2017-Sep-10 10:01N 39°51' W 075°16'5 9.0
2017-Sep-10 09:31N 39°50' W 075°22'2 4.1
2017-Sep-10 09:01N 39°49' W 075°24'1 1.2
2017-Sep-10 08:30N 39°49' W 075°24'4 7.3
2017-Sep-10 08:00N 39°51' W 075°19'4 7.2
2017-Sep-10 07:31N 39°51' W 075°15'3 6.5
2017-Sep-10 07:01N 39°54' W 075°12'1 1.1
2017-Sep-10 06:31N 39°54' W 075°12'2 4.1
2017-Sep-10 06:01N 39°53' W 075°10'2 3.8
2017-Sep-10 05:30N 39°54' W 075°08'0 0.3
2017-Sep-10 05:00N 39°54' W 075°08'0 0.6
2017-Sep-10 04:31N 39°54' W 075°08'0 0.0
2017-Sep-10 04:01N 39°54' W 075°08'0 0.3
2017-Sep-10 03:31N 39°54' W 075°08'3 5.1
2017-Sep-10 03:00N 39°54' W 075°12'0 0.0
2017-Sep-10 02:31N 39°54' W 075°12'0 0.0
2017-Sep-10 02:00N 39°54' W 075°12'0 0.0
2017-Sep-10 01:31N 39°54' W 075°12'0 0.0
2017-Sep-10 01:00N 39°54' W 075°12'3 5.1
2017-Sep-10 00:31N 39°52' W 075°14'4 8.1
2017-Sep-10 00:00N 39°51' W 075°19'4 7.7
2017-Sep-09 23:30N 39°49' W 075°23'1 1.7
2017-Sep-09 23:01N 39°49' W 075°24'0 0.5
2017-Sep-09 22:31N 39°49' W 075°24'5 9.6
2017-Sep-09 22:00N 39°51' W 075°19'5 9.3
2017-Sep-09 21:31N 39°52' W 075°13'4 8.7
2017-Sep-09 21:00N 39°54' W 075°08'4 7.6
2017-Sep-09 20:30N 39°58' W 075°07'2 4.0
2017-Sep-09 20:00N 39°59' W 075°04'0 0.1
2017-Sep-09 19:31N 39°59' W 075°04'0 0.9
2017-Sep-09 19:00N 39°59' W 075°05'0 0.0
2017-Sep-09 18:30N 39°59' W 075°05'0 0.0
2017-Sep-09 18:00N 39°59' W 075°05'0 0.0
2017-Sep-09 17:30N 39°59' W 075°05'0 0.0
2017-Sep-09 17:00N 39°59' W 075°05'0 0.0
2017-Sep-09 16:30N 39°59' W 075°05'0 0.0
2017-Sep-09 16:00N 39°59' W 075°05'0 0.0
2017-Sep-09 15:30N 39°59' W 075°05'3 5.6
2017-Sep-09 15:00N 39°57' W 075°08'4 7.8
2017-Sep-09 14:30N 39°53' W 075°08'1 2.1
2017-Sep-09 14:00N 39°53' W 075°09'  

Dump ship's entire track history